createdAt,value
2018-06-06T00:00:41.813Z,0
2018-06-06T00:01:43.433Z,0
2018-06-06T00:02:45.050Z,0
2018-06-06T00:03:46.668Z,0
2018-06-06T00:04:48.287Z,0
2018-06-06T00:05:49.898Z,0
2018-06-06T00:06:51.519Z,0
2018-06-06T00:07:53.137Z,0
2018-06-06T00:08:54.752Z,0
2018-06-06T00:09:56.372Z,0
2018-06-06T00:10:57.991Z,0
2018-06-06T00:11:59.620Z,0
2018-06-06T00:13:01.229Z,0
2018-06-06T00:14:02.849Z,0
2018-06-06T00:15:04.469Z,0
2018-06-06T00:16:06.086Z,0
2018-06-06T00:17:07.706Z,0
2018-06-06T00:18:09.331Z,0
2018-06-06T00:19:10.938Z,0
2018-06-06T00:20:12.557Z,0
2018-06-06T00:21:14.171Z,0
2018-06-06T00:22:15.790Z,0
2018-06-06T00:23:17.404Z,0
2018-06-06T00:24:19.022Z,0
2018-06-06T00:25:20.640Z,0
2018-06-06T00:26:22.258Z,0
2018-06-06T00:27:23.874Z,0
2018-06-06T00:28:25.490Z,0
2018-06-06T00:29:27.113Z,0
2018-06-06T00:30:28.729Z,0
2018-06-06T00:31:30.346Z,0
2018-06-06T00:32:31.961Z,0
2018-06-06T00:33:33.580Z,0
2018-06-06T00:34:35.199Z,0
2018-06-06T00:35:36.819Z,0
2018-06-06T00:36:38.430Z,0
2018-06-06T00:37:40.053Z,0
2018-06-06T00:38:41.673Z,0
2018-06-06T00:39:43.285Z,0
2018-06-06T00:40:44.906Z,0
2018-06-06T00:41:46.553Z,0
2018-06-06T00:42:48.141Z,0
2018-06-06T00:43:49.752Z,0
2018-06-06T00:44:51.372Z,0
2018-06-06T00:45:52.988Z,0
2018-06-06T00:46:54.609Z,0
2018-06-06T00:47:56.220Z,0
2018-06-06T00:48:57.841Z,0
2018-06-06T00:49:59.455Z,0
2018-06-06T00:51:01.075Z,0
2018-06-06T00:52:02.693Z,0
2018-06-06T00:53:04.310Z,0
2018-06-06T00:54:05.923Z,0
2018-06-06T00:55:07.549Z,0
2018-06-06T00:56:09.160Z,0
2018-06-06T00:57:10.781Z,0
2018-06-06T00:58:12.400Z,0
2018-06-06T00:59:14.019Z,0
2018-06-06T01:00:15.639Z,0
2018-06-06T01:01:17.250Z,0
2018-06-06T01:02:18.870Z,0
2018-06-06T01:03:20.485Z,0
2018-06-06T01:04:22.099Z,0
2018-06-06T01:05:23.720Z,0
2018-06-06T01:06:25.337Z,0
2018-06-06T01:07:26.958Z,0
2018-06-06T01:08:28.570Z,0
2018-06-06T01:09:30.186Z,0
2018-06-06T01:10:31.804Z,0
2018-06-06T01:11:33.421Z,0
2018-06-06T01:12:35.034Z,0
2018-06-06T01:13:36.650Z,0
2018-06-06T01:14:38.273Z,0
2018-06-06T01:15:39.892Z,0
2018-06-06T01:16:41.502Z,0
2018-06-06T01:17:43.121Z,0
2018-06-06T01:18:44.740Z,0
2018-06-06T01:19:46.365Z,0
2018-06-06T01:20:47.986Z,0
2018-06-06T01:21:49.599Z,0
2018-06-06T01:22:51.218Z,0
2018-06-06T01:23:52.842Z,0
2018-06-06T01:24:54.450Z,0
2018-06-06T01:25:56.065Z,0
2018-06-06T01:26:57.687Z,0
2018-06-06T01:27:59.303Z,0
2018-06-06T01:29:00.918Z,0
2018-06-06T01:30:02.544Z,0
2018-06-06T01:31:04.157Z,0
2018-06-06T01:32:05.773Z,0
2018-06-06T01:33:07.393Z,0
2018-06-06T01:34:09.040Z,0
2018-06-06T01:35:10.631Z,0
2018-06-06T01:36:12.244Z,0
2018-06-06T01:37:13.865Z,0
2018-06-06T01:38:15.482Z,0
2018-06-06T01:39:17.098Z,0
2018-06-06T01:40:18.721Z,0
2018-06-06T01:41:20.337Z,0
2018-06-06T01:42:21.956Z,0
2018-06-06T01:43:23.576Z,0
2018-06-06T01:44:25.195Z,0
2018-06-06T01:45:26.806Z,0
2018-06-06T01:46:28.421Z,0
2018-06-06T01:47:30.037Z,0
2018-06-06T01:48:31.659Z,0
2018-06-06T01:49:33.276Z,0
2018-06-06T01:50:34.893Z,0
2018-06-06T01:51:36.514Z,0
2018-06-06T01:52:38.127Z,0
2018-06-06T01:53:39.748Z,0
2018-06-06T01:54:41.361Z,0
2018-06-06T01:55:42.984Z,0
2018-06-06T01:56:44.601Z,0
2018-06-06T01:57:46.220Z,0
2018-06-06T01:58:47.841Z,0
2018-06-06T01:59:49.452Z,0
2018-06-06T02:00:51.076Z,0
2018-06-06T02:01:52.687Z,0
2018-06-06T02:02:54.308Z,0
2018-06-06T02:03:55.930Z,0
2018-06-06T02:04:57.551Z,0
2018-06-06T02:05:59.166Z,0
2018-06-06T02:07:00.784Z,0
2018-06-06T02:08:02.401Z,0
2018-06-06T02:09:04.020Z,0
2018-06-06T02:10:05.636Z,0
2018-06-06T02:11:07.257Z,0
2018-06-06T02:12:08.871Z,0
2018-06-06T02:13:10.487Z,0
2018-06-06T02:14:12.108Z,0
2018-06-06T02:15:13.720Z,0
2018-06-06T02:16:15.343Z,0
2018-06-06T02:17:16.961Z,0
2018-06-06T02:18:18.576Z,0
2018-06-06T02:19:20.196Z,0
2018-06-06T02:20:21.809Z,0
2018-06-06T02:21:23.426Z,0
2018-06-06T02:22:25.042Z,0
2018-06-06T02:23:26.658Z,0
2018-06-06T02:24:28.273Z,0
2018-06-06T02:25:29.895Z,0
2018-06-06T02:26:31.510Z,0
2018-06-06T02:27:33.132Z,0
2018-06-06T02:28:34.742Z,0
2018-06-06T02:29:36.356Z,0
2018-06-06T02:30:37.977Z,0
2018-06-06T02:31:39.590Z,0
2018-06-06T02:32:41.212Z,0
2018-06-06T02:33:42.836Z,0
2018-06-06T02:34:44.445Z,0
2018-06-06T02:35:46.065Z,0
2018-06-06T02:36:47.675Z,0
2018-06-06T02:37:49.292Z,0
2018-06-06T02:38:50.905Z,0
2018-06-06T02:39:52.523Z,0
2018-06-06T02:40:54.140Z,0
2018-06-06T02:41:55.758Z,0
2018-06-06T02:42:57.372Z,0
2018-06-06T02:43:58.988Z,0
2018-06-06T02:45:00.608Z,0
2018-06-06T02:46:02.229Z,0
2018-06-06T02:47:03.854Z,0
2018-06-06T02:48:05.473Z,0
2018-06-06T02:49:07.084Z,0
2018-06-06T02:50:08.705Z,0
2018-06-06T02:51:10.319Z,0
2018-06-06T02:52:11.939Z,0
2018-06-06T02:53:13.559Z,0
2018-06-06T02:54:15.182Z,0
2018-06-06T02:55:16.804Z,0
2018-06-06T02:56:18.425Z,0
2018-06-06T02:57:20.050Z,0
2018-06-06T02:58:21.672Z,0
2018-06-06T02:59:23.284Z,0
2018-06-06T03:00:24.910Z,0
2018-06-06T03:01:27.043Z,0
2018-06-06T03:02:29.191Z,5
2018-06-06T03:03:30.820Z,5
2018-06-06T03:04:32.435Z,5
2018-06-06T03:05:34.056Z,5
2018-06-06T03:06:35.679Z,5
2018-06-06T03:07:37.295Z,5
2018-06-06T03:08:38.914Z,5
2018-06-06T03:09:40.538Z,5
2018-06-06T03:10:42.159Z,11
2018-06-06T03:11:43.779Z,11
2018-06-06T03:12:45.399Z,11
2018-06-06T03:13:47.018Z,11
2018-06-06T03:14:48.640Z,11
2018-06-06T03:15:50.260Z,16
2018-06-06T03:16:51.913Z,16
2018-06-06T03:17:53.513Z,16
2018-06-06T03:18:55.131Z,16
2018-06-06T03:19:56.753Z,16
2018-06-06T03:20:58.379Z,22
2018-06-06T03:21:59.995Z,22
2018-06-06T03:23:01.619Z,22
2018-06-06T03:24:03.244Z,28
2018-06-06T03:25:04.867Z,28
2018-06-06T03:26:06.520Z,28
2018-06-06T03:27:08.137Z,28
2018-06-06T03:28:09.755Z,33
2018-06-06T03:29:11.377Z,33
2018-06-06T03:30:12.996Z,33
2018-06-06T03:31:14.618Z,39
2018-06-06T03:32:16.239Z,39
2018-06-06T03:33:17.854Z,45
2018-06-06T03:34:19.477Z,45
2018-06-06T03:35:21.097Z,45
2018-06-06T03:36:22.718Z,50
2018-06-06T03:37:24.342Z,50
2018-06-06T03:38:25.960Z,50
2018-06-06T03:39:27.595Z,56
2018-06-06T03:40:29.200Z,56
2018-06-06T03:41:30.823Z,61
2018-06-06T03:42:32.447Z,61
2018-06-06T03:43:34.062Z,67
2018-06-06T03:44:35.684Z,67
2018-06-06T03:45:37.309Z,67
2018-06-06T03:46:38.924Z,73
2018-06-06T03:47:40.543Z,73
2018-06-06T03:48:42.171Z,78
2018-06-06T03:49:43.792Z,78
2018-06-06T03:50:45.413Z,84
2018-06-06T03:51:47.037Z,84
2018-06-06T03:52:48.655Z,90
2018-06-06T03:53:50.278Z,90
2018-06-06T03:54:51.893Z,90
2018-06-06T03:55:53.511Z,95
2018-06-06T03:56:55.137Z,95
2018-06-06T03:57:56.758Z,101
2018-06-06T03:58:58.380Z,101
2018-06-06T04:00:00.066Z,106
2018-06-06T04:01:01.624Z,106
2018-06-06T04:02:03.245Z,112
2018-06-06T04:03:04.870Z,112
2018-06-06T04:04:06.494Z,118
2018-06-06T04:05:08.116Z,118
2018-06-06T04:06:09.736Z,123
2018-06-06T04:07:11.361Z,123
2018-06-06T04:08:12.981Z,123
2018-06-06T04:09:14.613Z,129
2018-06-06T04:10:16.237Z,129
2018-06-06T04:11:17.856Z,135
2018-06-06T04:12:19.479Z,135
2018-06-06T04:13:21.107Z,140
2018-06-06T04:14:22.733Z,140
2018-06-06T04:15:24.349Z,146
2018-06-06T04:16:25.975Z,146
2018-06-06T04:17:27.594Z,151
2018-06-06T04:18:29.215Z,151
2018-06-06T04:19:30.843Z,157
2018-06-06T04:20:32.472Z,157
2018-06-06T04:21:34.091Z,157
2018-06-06T04:22:35.716Z,163
2018-06-06T04:23:37.337Z,163
2018-06-06T04:24:38.957Z,168
2018-06-06T04:25:40.581Z,168
2018-06-06T04:26:42.203Z,174
2018-06-06T04:27:43.828Z,174
2018-06-06T04:28:45.452Z,174
2018-06-06T04:29:47.073Z,168
2018-06-06T04:30:48.689Z,168
2018-06-06T04:31:50.316Z,174
2018-06-06T04:32:51.946Z,174
2018-06-06T04:33:53.567Z,180
2018-06-06T04:34:55.193Z,180
2018-06-06T04:35:56.817Z,185
2018-06-06T04:36:58.552Z,185
2018-06-06T04:38:00.310Z,191
2018-06-06T04:39:03.271Z,191
2018-06-06T04:40:04.899Z,196
2018-06-06T04:41:06.522Z,196
2018-06-06T04:42:08.145Z,196
2018-06-06T04:43:09.773Z,202
2018-06-06T04:44:11.389Z,202
2018-06-06T04:45:13.046Z,208
2018-06-06T04:46:14.672Z,208
2018-06-06T04:47:16.297Z,208
2018-06-06T04:48:17.915Z,208
2018-06-06T04:49:19.537Z,208
2018-06-06T04:50:21.162Z,213
2018-06-06T04:51:22.783Z,213
2018-06-06T04:52:24.406Z,219
2018-06-06T04:53:26.021Z,219
2018-06-06T04:54:27.649Z,225
2018-06-06T04:55:29.272Z,180
2018-06-06T04:56:30.893Z,225
2018-06-06T04:57:32.523Z,225
2018-06-06T04:58:34.158Z,236
2018-06-06T04:59:35.782Z,236
2018-06-06T05:00:37.406Z,236
2018-06-06T05:01:39.028Z,247
2018-06-06T05:02:40.651Z,241
2018-06-06T05:03:42.278Z,241
2018-06-06T05:04:43.901Z,247
2018-06-06T05:05:45.573Z,247
2018-06-06T05:06:47.145Z,247
2018-06-06T05:07:48.770Z,253
2018-06-06T05:08:50.391Z,253
2018-06-06T05:09:52.013Z,253
2018-06-06T05:10:55.053Z,258
2018-06-06T05:11:56.678Z,258
2018-06-06T05:12:58.293Z,258
2018-06-06T05:13:59.920Z,258
2018-06-06T05:15:01.539Z,264
2018-06-06T05:16:03.159Z,264
2018-06-06T05:17:04.792Z,264
2018-06-06T05:18:06.412Z,270
2018-06-06T05:19:08.039Z,270
2018-06-06T05:20:09.664Z,275
2018-06-06T05:21:11.282Z,275
2018-06-06T05:22:12.907Z,281
2018-06-06T05:23:14.527Z,281
2018-06-06T05:24:16.148Z,281
2018-06-06T05:25:17.907Z,281
2018-06-06T05:26:19.526Z,286
2018-06-06T05:27:21.158Z,292
2018-06-06T05:28:22.782Z,258
2018-06-06T05:29:24.402Z,292
2018-06-06T05:30:26.029Z,286
2018-06-06T05:31:27.649Z,292
2018-06-06T05:32:29.273Z,241
2018-06-06T05:33:30.904Z,286
2018-06-06T05:34:32.520Z,303
2018-06-06T05:35:34.148Z,303
2018-06-06T05:36:35.767Z,309
2018-06-06T05:37:37.393Z,309
2018-06-06T05:38:39.021Z,309
2018-06-06T05:39:40.647Z,315
2018-06-06T05:40:42.274Z,315
2018-06-06T05:41:43.896Z,315
2018-06-06T05:42:45.518Z,320
2018-06-06T05:43:47.147Z,326
2018-06-06T05:44:48.769Z,337
2018-06-06T05:45:50.386Z,331
2018-06-06T05:46:52.008Z,337
2018-06-06T05:47:53.637Z,337
2018-06-06T05:48:55.257Z,337
2018-06-06T05:49:56.884Z,337
2018-06-06T05:50:58.505Z,343
2018-06-06T05:52:00.137Z,343
2018-06-06T05:53:01.757Z,348
2018-06-06T05:54:03.384Z,343
2018-06-06T05:55:05.003Z,348
2018-06-06T05:56:06.624Z,348
2018-06-06T05:57:08.253Z,354
2018-06-06T05:58:09.869Z,354
2018-06-06T05:59:11.490Z,354
2018-06-06T06:00:13.118Z,360
2018-06-06T06:01:14.740Z,360
2018-06-06T06:02:16.368Z,365
2018-06-06T06:03:17.992Z,365
2018-06-06T06:04:19.610Z,365
2018-06-06T06:05:21.239Z,371
2018-06-06T06:06:22.860Z,382
2018-06-06T06:07:24.487Z,376
2018-06-06T06:08:26.130Z,388
2018-06-06T06:09:27.739Z,410
2018-06-06T06:10:29.362Z,669
2018-06-06T06:11:30.979Z,1102
2018-06-06T06:12:32.600Z,1507
2018-06-06T06:13:34.228Z,1749
2018-06-06T06:14:35.851Z,1766
2018-06-06T06:15:37.473Z,1670
2018-06-06T06:16:39.106Z,1800
2018-06-06T06:17:40.727Z,1788
2018-06-06T06:18:42.354Z,2131
2018-06-06T06:19:43.983Z,2126
2018-06-06T06:20:45.605Z,2053
2018-06-06T06:21:47.235Z,2131
2018-06-06T06:22:48.857Z,1890
2018-06-06T06:23:50.487Z,1805
2018-06-06T06:24:52.110Z,1912
2018-06-06T06:25:53.754Z,2278
2018-06-06T06:26:55.374Z,2182
2018-06-06T06:27:57.007Z,1963
2018-06-06T06:28:58.633Z,2086
2018-06-06T06:30:00.306Z,2188
2018-06-06T06:31:01.929Z,2340
2018-06-06T06:32:03.548Z,2137
2018-06-06T06:33:05.180Z,2053
2018-06-06T06:34:06.803Z,2081
2018-06-06T06:35:08.437Z,2385
2018-06-06T06:36:10.065Z,2497
2018-06-06T06:37:11.692Z,2373
2018-06-06T06:38:13.328Z,2486
2018-06-06T06:39:14.953Z,2739
2018-06-06T06:40:16.590Z,2767
2018-06-06T06:41:18.217Z,2767
2018-06-06T06:42:19.846Z,2756
2018-06-06T06:43:21.481Z,2835
2018-06-06T06:44:23.113Z,2604
2018-06-06T06:45:24.748Z,2351
2018-06-06T06:46:26.379Z,2536
2018-06-06T06:47:28.014Z,2812
2018-06-06T06:48:29.647Z,2666
2018-06-06T06:49:31.276Z,2469
2018-06-06T06:50:32.911Z,2756
2018-06-06T06:51:34.544Z,3031
2018-06-06T06:52:36.192Z,2891
2018-06-06T06:53:37.819Z,2671
2018-06-06T06:54:39.446Z,2733
2018-06-06T06:55:41.078Z,2818
2018-06-06T06:56:42.713Z,3138
2018-06-06T06:57:44.349Z,3352
2018-06-06T06:58:45.984Z,3459
2018-06-06T06:59:47.614Z,3526
2018-06-06T07:00:49.255Z,3442
2018-06-06T07:01:50.896Z,3330
2018-06-06T07:02:52.527Z,3571
2018-06-06T07:03:54.158Z,3971
2018-06-06T07:04:55.795Z,4376
2018-06-06T07:05:57.429Z,4488
2018-06-06T07:06:59.066Z,4426
2018-06-06T07:08:00.701Z,4044
2018-06-06T07:09:02.330Z,3571
2018-06-06T07:10:03.972Z,3127
2018-06-06T07:11:05.604Z,2857
2018-06-06T07:12:07.235Z,2705
2018-06-06T07:13:08.870Z,2520
2018-06-06T07:14:10.510Z,2345
2018-06-06T07:15:12.151Z,2244
2018-06-06T07:16:13.782Z,2221
2018-06-06T07:17:15.425Z,2171
2018-06-06T07:18:17.048Z,2182
2018-06-06T07:19:18.744Z,2148
2018-06-06T07:20:20.323Z,2115
2018-06-06T07:21:21.966Z,2126
2018-06-06T07:22:23.595Z,2126
2018-06-06T07:23:25.241Z,2137
2018-06-06T07:24:26.870Z,2143
2018-06-06T07:25:28.508Z,2137
2018-06-06T07:26:30.150Z,2137
2018-06-06T07:27:31.786Z,2148
2018-06-06T07:28:33.428Z,2154
2018-06-06T07:29:35.060Z,2171
2018-06-06T07:30:36.706Z,2188
2018-06-06T07:31:38.358Z,2193
2018-06-06T07:32:39.985Z,2210
2018-06-06T07:33:41.621Z,2233
2018-06-06T07:34:43.257Z,2233
2018-06-06T07:35:44.901Z,2255
2018-06-06T07:36:46.532Z,2244
2018-06-06T07:37:48.176Z,2238
2018-06-06T07:38:49.810Z,2289
2018-06-06T07:39:51.450Z,2295
2018-06-06T07:40:53.088Z,2295
2018-06-06T07:41:54.722Z,2317
2018-06-06T07:42:56.365Z,2334
2018-06-06T07:43:58.002Z,2340
2018-06-06T07:44:59.643Z,2340
2018-06-06T07:46:01.301Z,2368
2018-06-06T07:47:02.944Z,2385
2018-06-06T07:48:04.628Z,2368
2018-06-06T07:49:06.310Z,2390
2018-06-06T07:50:07.948Z,2390
2018-06-06T07:51:09.587Z,2407
2018-06-06T07:52:11.307Z,2407
2018-06-06T07:53:12.951Z,2446
2018-06-06T07:54:14.666Z,2441
2018-06-06T07:55:16.309Z,2424
2018-06-06T07:56:17.948Z,2446
2018-06-06T07:57:19.618Z,2441
2018-06-06T07:58:21.260Z,2452
2018-06-06T07:59:22.893Z,2441
2018-06-06T08:00:24.639Z,2452
2018-06-06T08:01:26.295Z,2441
2018-06-06T08:02:27.918Z,2491
2018-06-06T08:03:29.557Z,2458
2018-06-06T08:04:31.207Z,2452
2018-06-06T08:05:32.861Z,2452
2018-06-06T08:06:34.566Z,2446
2018-06-06T08:07:36.211Z,2452
2018-06-06T08:08:37.924Z,2458
2018-06-06T08:09:39.589Z,2458
2018-06-06T08:10:41.207Z,2497
2018-06-06T08:11:42.845Z,2576
2018-06-06T08:12:44.500Z,2576
2018-06-06T08:13:46.137Z,2565
2018-06-06T08:14:47.799Z,2593
2018-06-06T08:15:49.472Z,2621
2018-06-06T08:16:51.071Z,2621
2018-06-06T08:17:52.729Z,2638
2018-06-06T08:18:54.416Z,2632
2018-06-06T08:19:56.023Z,2621
2018-06-06T08:20:57.722Z,2621
2018-06-06T08:21:59.367Z,2621
2018-06-06T08:23:01.013Z,2593
2018-06-06T08:24:02.657Z,2576
2018-06-06T08:25:04.300Z,2615
2018-06-06T08:26:05.945Z,2615
2018-06-06T08:27:07.589Z,2621
2018-06-06T08:28:09.228Z,2615
2018-06-06T08:29:10.871Z,2716
2018-06-06T08:30:12.513Z,2840
2018-06-06T08:31:14.154Z,2964
2018-06-06T08:32:15.798Z,3436
2018-06-06T08:33:17.441Z,4078
2018-06-06T08:34:19.087Z,4584
2018-06-06T08:35:20.734Z,5062
2018-06-06T08:36:22.404Z,5310
2018-06-06T08:37:24.015Z,5467
2018-06-06T08:38:25.658Z,5596
2018-06-06T08:39:27.308Z,5720
2018-06-06T08:40:28.945Z,5805
2018-06-06T08:41:30.593Z,5816
2018-06-06T08:42:32.232Z,6294
2018-06-06T08:43:33.873Z,6412
2018-06-06T08:44:35.540Z,6339
2018-06-06T08:45:37.161Z,6356
2018-06-06T08:46:38.811Z,6159
2018-06-06T08:47:40.456Z,6333
2018-06-06T08:48:42.096Z,6541
2018-06-06T08:49:43.739Z,6547
2018-06-06T08:50:45.427Z,6508
2018-06-06T08:51:47.022Z,6035
2018-06-06T08:52:48.675Z,5760
2018-06-06T08:53:50.320Z,5906
2018-06-06T08:54:51.967Z,6513
2018-06-06T08:55:53.603Z,6946
2018-06-06T08:56:55.246Z,6688
2018-06-06T08:57:56.886Z,6525
2018-06-06T08:58:58.536Z,6423
2018-06-06T09:00:00.177Z,6519
2018-06-06T09:01:01.828Z,6721
2018-06-06T09:02:03.476Z,6958
2018-06-06T09:03:05.114Z,6654
2018-06-06T09:04:06.765Z,6418
2018-06-06T09:05:08.402Z,6727
2018-06-06T09:06:10.046Z,7256
2018-06-06T09:07:11.696Z,7008
2018-06-06T09:08:13.332Z,6519
2018-06-06T09:09:14.987Z,6755
2018-06-06T09:10:16.626Z,7121
2018-06-06T09:11:18.269Z,7003
2018-06-06T09:12:19.918Z,6901
2018-06-06T09:13:21.556Z,7110
2018-06-06T09:14:23.335Z,7115
2018-06-06T09:15:24.994Z,6873
2018-06-06T09:16:26.636Z,6699
2018-06-06T09:17:28.284Z,6586
2018-06-06T09:18:29.930Z,6165
2018-06-06T09:19:31.808Z,6316
2018-06-06T09:20:33.456Z,6873
2018-06-06T09:21:35.100Z,6705
2018-06-06T09:22:36.744Z,6305
2018-06-06T09:23:38.395Z,6131
2018-06-06T09:24:40.042Z,6446
2018-06-06T09:25:41.681Z,6693
2018-06-06T09:26:43.322Z,6738
2018-06-06T09:27:44.967Z,6789
2018-06-06T09:28:46.616Z,6761
2018-06-06T09:29:48.265Z,6193
2018-06-06T09:30:49.909Z,6232
2018-06-06T09:31:51.555Z,6991
2018-06-06T09:32:53.198Z,6828
2018-06-06T09:33:54.845Z,6136
2018-06-06T09:34:56.485Z,5911
2018-06-06T09:35:58.138Z,6097
2018-06-06T09:36:59.789Z,6671
2018-06-06T09:38:01.432Z,6828
2018-06-06T09:39:03.077Z,6457
2018-06-06T09:40:04.717Z,6305
2018-06-06T09:41:06.361Z,6682
2018-06-06T09:42:08.011Z,6682
2018-06-06T09:43:09.659Z,6817
2018-06-06T09:44:11.339Z,6969
2018-06-06T09:45:12.948Z,7025
2018-06-06T09:46:14.589Z,7132
2018-06-06T09:47:16.239Z,6997
2018-06-06T09:48:17.878Z,6958
2018-06-06T09:49:19.524Z,7239
2018-06-06T09:50:21.174Z,7121
2018-06-06T09:51:22.822Z,7070
2018-06-06T09:52:24.465Z,7138
2018-06-06T09:53:26.110Z,7160
2018-06-06T09:54:27.757Z,7003
2018-06-06T09:55:29.398Z,6648
2018-06-06T09:56:31.050Z,6570
2018-06-06T09:57:32.696Z,6243
2018-06-06T09:58:34.344Z,6063
2018-06-06T09:59:35.995Z,6418
2018-06-06T10:00:37.634Z,6418
2018-06-06T10:01:39.281Z,5686
2018-06-06T10:02:40.923Z,5270
2018-06-06T10:03:42.568Z,5760
2018-06-06T10:04:44.215Z,6232
2018-06-06T10:05:45.866Z,6373
2018-06-06T10:06:47.511Z,6277
2018-06-06T10:07:49.152Z,6255
2018-06-06T10:08:50.801Z,5928
2018-06-06T10:09:52.445Z,5591
2018-06-06T10:10:54.090Z,5731
2018-06-06T10:11:55.742Z,6058
2018-06-06T10:12:57.385Z,6187
2018-06-06T10:13:59.029Z,6007
2018-06-06T10:15:00.673Z,5968
2018-06-06T10:16:02.320Z,6041
2018-06-06T10:17:03.960Z,6204
2018-06-06T10:18:05.612Z,6485
2018-06-06T10:19:07.252Z,6615
2018-06-06T10:20:08.900Z,6418
2018-06-06T10:21:10.547Z,6401
2018-06-06T10:22:12.195Z,6699
2018-06-06T10:23:13.834Z,6480
2018-06-06T10:24:15.481Z,6406
2018-06-06T10:25:17.122Z,6485
2018-06-06T10:26:18.764Z,6418
2018-06-06T10:27:20.415Z,6238
2018-06-06T10:28:22.057Z,6243
2018-06-06T10:29:23.703Z,6474
2018-06-06T10:30:25.347Z,6474
2018-06-06T10:31:27.017Z,6502
2018-06-06T10:32:28.642Z,6598
2018-06-06T10:33:30.319Z,6412
2018-06-06T10:34:31.941Z,6142
2018-06-06T10:35:33.578Z,6204
2018-06-06T10:36:35.218Z,6480
2018-06-06T10:37:36.866Z,6727
2018-06-06T10:38:38.509Z,6710
2018-06-06T10:39:40.157Z,6553
2018-06-06T10:40:41.806Z,6772
2018-06-06T10:41:43.448Z,6862
2018-06-06T10:42:45.104Z,6755
2018-06-06T10:43:46.743Z,6592
2018-06-06T10:44:48.389Z,6328
2018-06-06T10:45:50.057Z,6238
2018-06-06T10:46:51.684Z,6390
2018-06-06T10:47:53.325Z,6508
2018-06-06T10:48:54.972Z,6716
2018-06-06T10:49:56.624Z,6463
2018-06-06T10:50:58.267Z,6395
2018-06-06T10:51:59.913Z,6395
2018-06-06T10:53:01.563Z,6586
2018-06-06T10:54:03.205Z,6519
2018-06-06T10:55:04.857Z,6170
2018-06-06T10:56:06.499Z,6148
2018-06-06T10:57:08.145Z,6243
2018-06-06T10:58:09.794Z,6300
2018-06-06T10:59:11.436Z,6564
2018-06-06T11:00:13.091Z,6412
2018-06-06T11:01:14.738Z,6519
2018-06-06T11:02:16.380Z,6446
2018-06-06T11:03:18.037Z,6412
2018-06-06T11:04:19.682Z,6311
2018-06-06T11:05:21.323Z,6457
2018-06-06T11:06:22.973Z,6800
2018-06-06T11:07:24.616Z,6676
2018-06-06T11:08:26.271Z,6660
2018-06-06T11:09:27.912Z,6626
2018-06-06T11:10:29.559Z,6525
2018-06-06T11:11:31.204Z,6586
2018-06-06T11:12:32.851Z,6558
2018-06-06T11:13:34.498Z,6418
2018-06-06T11:14:36.141Z,6547
2018-06-06T11:15:37.794Z,6795
2018-06-06T11:16:39.504Z,6778
2018-06-06T11:17:41.084Z,6395
2018-06-06T11:18:42.734Z,6018
2018-06-06T11:19:44.378Z,6108
2018-06-06T11:20:46.027Z,6390
2018-06-06T11:21:47.664Z,6513
2018-06-06T11:22:49.315Z,6423
2018-06-06T11:23:50.962Z,6558
2018-06-06T11:24:52.606Z,6609
2018-06-06T11:25:54.257Z,6564
2018-06-06T11:26:55.893Z,6609
2018-06-06T11:27:57.545Z,6485
2018-06-06T11:28:59.183Z,6063
2018-06-06T11:30:00.836Z,5793
2018-06-06T11:31:02.477Z,5737
2018-06-06T11:32:04.123Z,6243
2018-06-06T11:33:05.772Z,6390
2018-06-06T11:34:07.410Z,6401
2018-06-06T11:35:09.059Z,6406
2018-06-06T11:36:10.710Z,6463
2018-06-06T11:37:12.351Z,6570
2018-06-06T11:38:13.994Z,6598
2018-06-06T11:39:15.644Z,6496
2018-06-06T11:40:17.285Z,6367
2018-06-06T11:41:18.931Z,6136
2018-06-06T11:42:20.574Z,6215
2018-06-06T11:43:22.217Z,6322
2018-06-06T11:44:23.860Z,6401
2018-06-06T11:45:25.509Z,6541
2018-06-06T11:46:27.156Z,6648
2018-06-06T11:47:28.801Z,6800
2018-06-06T11:48:30.447Z,6631
2018-06-06T11:49:32.087Z,6468
2018-06-06T11:50:33.728Z,6367
2018-06-06T11:51:35.381Z,6210
2018-06-06T11:52:37.024Z,6215
2018-06-06T11:53:38.667Z,6406
2018-06-06T11:54:40.319Z,6491
2018-06-06T11:55:41.960Z,6406
2018-06-06T11:56:43.602Z,6243
2018-06-06T11:57:45.248Z,6356
2018-06-06T11:58:46.888Z,6339
2018-06-06T11:59:48.537Z,6390
2018-06-06T12:00:50.184Z,6530
2018-06-06T12:01:51.826Z,6525
2018-06-06T12:02:53.467Z,6581
2018-06-06T12:03:55.114Z,6665
2018-06-06T12:04:56.751Z,6817
2018-06-06T12:05:58.401Z,6800
2018-06-06T12:07:00.049Z,6412
2018-06-06T12:08:01.695Z,6187
2018-06-06T12:09:03.340Z,5973
2018-06-06T12:10:04.978Z,6063
2018-06-06T12:11:06.619Z,6412
2018-06-06T12:12:08.267Z,6406
2018-06-06T12:13:09.903Z,6423
2018-06-06T12:14:11.547Z,6457
2018-06-06T12:15:13.193Z,6468
2018-06-06T12:16:14.838Z,6406
2018-06-06T12:17:16.476Z,6423
2018-06-06T12:18:18.124Z,6181
2018-06-06T12:19:19.766Z,5990
2018-06-06T12:20:21.406Z,6063
2018-06-06T12:21:23.053Z,6418
2018-06-06T12:22:24.693Z,6485
2018-06-06T12:23:26.342Z,6238
2018-06-06T12:24:27.987Z,6069
2018-06-06T12:25:29.623Z,5973
2018-06-06T12:26:31.263Z,5793
2018-06-06T12:27:32.912Z,5726
2018-06-06T12:28:34.561Z,6153
2018-06-06T12:29:36.222Z,6316
2018-06-06T12:30:37.871Z,6187
2018-06-06T12:31:39.509Z,6210
2018-06-06T12:32:41.149Z,5923
2018-06-06T12:33:42.798Z,5765
2018-06-06T12:34:44.436Z,5478
2018-06-06T12:35:46.085Z,5703
2018-06-06T12:36:47.724Z,5776
2018-06-06T12:37:49.366Z,5641
2018-06-06T12:38:51.011Z,5124
2018-06-06T12:39:52.651Z,3796
2018-06-06T12:40:54.298Z,6193
2018-06-06T12:41:55.947Z,6075
2018-06-06T12:42:57.593Z,5850
2018-06-06T12:43:59.236Z,5872
2018-06-06T12:45:00.881Z,4027
2018-06-06T12:46:02.520Z,2655
2018-06-06T12:47:04.160Z,5416
2018-06-06T12:48:05.806Z,5405
2018-06-06T12:49:07.450Z,5574
2018-06-06T12:50:09.094Z,5765
2018-06-06T12:51:10.735Z,5580
2018-06-06T12:52:12.378Z,5748
2018-06-06T12:53:14.022Z,5613
2018-06-06T12:54:15.662Z,5456
2018-06-06T12:55:17.305Z,5546
2018-06-06T12:56:18.952Z,5619
2018-06-06T12:57:20.587Z,5478
2018-06-06T12:58:22.225Z,5720
2018-06-06T12:59:23.866Z,5715
2018-06-06T13:00:25.503Z,5281
2018-06-06T13:01:27.146Z,5529
2018-06-06T13:02:28.842Z,5495
2018-06-06T13:03:30.432Z,5236
2018-06-06T13:04:32.068Z,5641
2018-06-06T13:05:33.708Z,5613
2018-06-06T13:06:35.350Z,5394
2018-06-06T13:07:36.992Z,5265
2018-06-06T13:08:38.632Z,5394
2018-06-06T13:09:40.267Z,5490
2018-06-06T13:10:41.911Z,5231
2018-06-06T13:11:43.549Z,5490
2018-06-06T13:12:45.189Z,5400
2018-06-06T13:13:46.834Z,5130
2018-06-06T13:14:48.472Z,4950
2018-06-06T13:15:50.112Z,5006
2018-06-06T13:16:51.751Z,5141
2018-06-06T13:17:53.384Z,5236
2018-06-06T13:18:55.027Z,5231
2018-06-06T13:19:56.670Z,5253
2018-06-06T13:20:58.312Z,5231
2018-06-06T13:21:59.948Z,5096
2018-06-06T13:23:01.583Z,5135
2018-06-06T13:24:03.227Z,4995
2018-06-06T13:25:04.864Z,4983
2018-06-06T13:26:06.507Z,5130
2018-06-06T13:27:08.151Z,5416
2018-06-06T13:28:09.786Z,5276
2018-06-06T13:29:11.427Z,5034
2018-06-06T13:30:13.064Z,4848
2018-06-06T13:31:14.703Z,4792
2018-06-06T13:32:16.340Z,4747
2018-06-06T13:33:17.979Z,4691
2018-06-06T13:34:19.620Z,4933
2018-06-06T13:35:21.261Z,4927
2018-06-06T13:36:22.895Z,4876
2018-06-06T13:37:24.533Z,5000
2018-06-06T13:38:26.168Z,4668
2018-06-06T13:39:27.813Z,4393
2018-06-06T13:40:29.447Z,4601
2018-06-06T13:41:31.092Z,4770
2018-06-06T13:42:32.728Z,3943
2018-06-06T13:43:34.382Z,1760
2018-06-06T13:44:36.025Z,1237
2018-06-06T13:45:37.658Z,4978
2018-06-06T13:46:39.305Z,5225
2018-06-06T13:47:40.941Z,5096
2018-06-06T13:48:42.578Z,5011
2018-06-06T13:49:44.218Z,4989
2018-06-06T13:50:45.858Z,4983
2018-06-06T13:51:47.491Z,3847
2018-06-06T13:52:49.129Z,4550
2018-06-06T13:53:50.765Z,2047
2018-06-06T13:54:52.400Z,961
2018-06-06T13:55:54.040Z,798
2018-06-06T13:56:55.709Z,748
2018-06-06T13:57:57.305Z,798
2018-06-06T13:58:58.945Z,1018
2018-06-06T14:00:00.590Z,3830
2018-06-06T14:01:02.229Z,3639
2018-06-06T14:02:03.876Z,3465
2018-06-06T14:03:05.504Z,1805
2018-06-06T14:04:07.167Z,1845
2018-06-06T14:05:08.781Z,1636
2018-06-06T14:06:10.413Z,3667
2018-06-06T14:07:12.053Z,3774